Flight Track Log - Related Links

Times and Time Zones

All times are in EDT time to prevent confusion due to time zone crossing. See the WIG7117 flight status page for this flight to view local times or setup timezone preferences in your user account.

Time Position Orientation Groundspeed Altitude Reporting Facility
EDT Latitude Longitude Course Direction KTS MPH feet Rate Location/Type
Wed 10:20:09 PM 42.7528 -73.8086 359° North 83 96 900  Level Boston Center
Wed 10:20:58 PM 42.7714 -73.8092 359° North 85 98 1,900 1,156 Climbing Boston Center
Wed 10:21:58 PM 42.7794 -73.8403 289° West 91 105 3,000 1,041 Climbing Boston Center
Wed 10:22:59 PM 42.7872 -73.8800 285° West 116 133 4,000 984 Climbing Boston Center
Wed 10:24:00 PM 42.7950 -73.9256 283° West 118 136 5,000 942 Climbing Boston Center
Wed 10:25:00 PM 42.8008 -73.9681 281° West 121 139 5,900 942 Climbing Boston Center
Wed 10:26:01 PM 42.8083 -74.0136 283° West 124 143 6,900 992 Climbing Boston Center
Wed 10:27:01 PM 42.8161 -74.0675 281° West 132 152 7,900 545 Climbing Boston Center
Wed 10:28:02 PM 42.8258 -74.1189 284° West 145 167 8,000 49 Climbing Boston Center
Wed 10:29:03 PM 42.8331 -74.1786 279° West 155 178 8,000  Level Boston Center
Wed 10:30:03 PM 42.8428 -74.2325 284° West 150 173 8,000  Level Boston Center
Wed 10:31:04 PM 42.8503 -74.2867 281° West 148 170 8,000  Level Boston Center
Wed 10:31:54 PM 42.8578 -74.3322 283° West 147 169 8,000  Level Boston Center
Wed 10:32:55 PM 42.8653 -74.3889 280° West 146 168 8,000  Level Boston Center
Wed 10:33:55 PM 42.8725 -74.4431 280° West 145 167 8,000  Level Boston Center
Wed 10:34:56 PM 42.8842 -74.4972 286° West 146 168 8,000  Level Boston Center
Wed 10:35:57 PM 42.8914 -74.5542 280° West 147 169 8,000  Level Boston Center
Wed 10:36:57 PM 42.8967 -74.6083 278° West 145 167 8,000  Level Boston Center
Wed 10:37:58 PM 42.9061 -74.6625 283° West 145 167 8,000  Level Boston Center
Wed 10:38:59 PM 42.9133 -74.7167 280° West 147 169 8,000  Level Boston Center
Wed 10:39:59 PM 42.9225 -74.7708 283° West 144 166 8,000  Level Boston Center
Wed 10:41:00 PM 42.9297 -74.8250 280° West 142 163 8,000  Level Boston Center
Wed 10:42:00 PM 42.9372 -74.8733 282° West 140 161 8,000  Level Boston Center
Wed 10:43:01 PM 42.9442 -74.9278 280° West 141 162 8,000  Level Boston Center
Wed 10:44:02 PM 42.9536 -74.9819 283° West 142 163 8,000  Level Boston Center
Wed 10:45:02 PM 42.9606 -75.0361 280° West 142 163 8,000  Level Boston Center
Wed 10:46:03 PM 42.9697 -75.0875 284° West 142 163 8,000  Level Boston Center
Wed 10:47:04 PM 42.9769 -75.1419 280° West 142 163 8,000  Level Boston Center
Wed 10:48:04 PM 42.9842 -75.1933 281° West 144 166 8,000  Level Boston Center
Wed 10:49:05 PM 42.9911 -75.2475 280° West 144 166 8,000  Level Boston Center
Wed 10:50:05 PM 43.0000 -75.3019 283° West 144 166 8,000  Level Boston Center
Wed 10:51:06 PM 43.0092 -75.3564 283° West 147 169 8,000  Level Boston Center
Wed 10:52:07 PM 43.0158 -75.4161 279° West 147 169 8,000  Level Boston Center
Wed 10:53:07 PM 43.0228 -75.4706 280° West 147 169 8,000 -298 Level Boston Center
Wed 10:54:08 PM 43.0317 -75.5278 282° West 156 180 7,400 -541 Descending Boston Center
Wed 10:55:09 PM 43.0406 -75.5878 281° West 163 188 6,900 -496 Descending Boston Center
Wed 10:56:09 PM 43.0472 -75.6481 279° West 161 185 6,400 -545 Descending Boston Center
Wed 10:57:10 PM 43.0558 -75.7081 281° West 160 184 5,800 -590 Descending Boston Center
Wed 10:58:11 PM 43.0603 -75.7708 276° West 167 192 5,200 -397 Descending Boston Center
Wed 10:59:11 PM 43.0606 -75.8333 270° West 164 189 5,000 -99 Descending Boston Center
Wed 11:00:12 PM 43.0608 -75.8931 270° West 151 174 5,000 -99 Level Boston Center
Wed 11:01:12 PM 43.0611 -75.9528 270° West 150 173 4,800 -496 Descending Boston Center
Wed 11:02:13 PM 43.0572 -76.0122 265° West 166 191 4,000 -393 Descending Boston Center
Wed 11:03:14 PM 43.0492 -76.0686 259° West 152 175 4,000 -50 Level Boston Center
Wed 11:04:14 PM 43.0456 -76.1197 264° West 123 142 3,900 -694 Descending Boston Center
Wed 11:05:15 PM 43.0583 -76.1717 289° West 163 188 2,600 -1,230 Descending Boston Center
Wed 11:06:16 PM 43.1019 -76.1800 352° North 148 170 1,400 -1,180 Descending Boston Center
Wed 11:08:00 PM 43.1000 -76.1000 10° North  Level FlightAware Approximate
Wed 11:15:00 PM 43.1112 -76.1063 10° North  Level Estimated
Wed 11:16:00 PM 43.1112 -76.1063 10° North  Level Estimated
Wed 11:17:00 PM 43.1112 -76.1063 10° North  Level Estimated
Wed 11:18:00 PM 43.1112 -76.1063 10° North  Level Estimated
Wed 11:19:00 PM 43.1112 -76.1063 10° North  Level Estimated
Wed 11:20:00 PM 43.1112 -76.1063 10° North  Level Estimated
Wed 11:21:00 PM 43.1112 -76.1063 10° North  Level Estimated

Login

Don't have an account? Register now (free) for customized features, flight alerts, and more!